Time;durP1;ratioP1;P1;durP2;ratioP2;P2;SDS_P1;SDS_P2;PMS_P1;PMS_P2;Temp;Humidity;BMP_temperature;BMP_pressure;BME280_temperature;BME280_humidity;BME280_pressure;Samples;Min_cycle;Max_cycle;Signal;HPM_P1;HPM_P2
2023/07/10 00:01:14;;;;;;;9.30;4.17;;;27.10;68.40;;;;;;5048308;28;20878;-67
2023/07/10 00:03:41;;;;;;;5.00;3.90;;;27.00;68.60;;;;;;5049621;28;20422;-66
2023/07/10 00:06:13;;;;;;;6.50;4.00;;;27.00;68.60;;;;;;5049808;28;20422;-65
2023/07/10 00:08:39;;;;;;;11.00;4.40;;;27.00;68.50;;;;;;5049707;28;20426;-65
2023/07/10 00:11:30;;;;;;;3.83;3.43;;;26.90;68.60;;;;;;5049444;28;20442;-65
2023/07/10 00:13:56;;;;;;;8.90;3.80;;;26.90;68.60;;;;;;5048128;28;20945;-66
2023/07/10 00:16:23;;;;;;;8.57;4.53;;;26.90;69.00;;;;;;5049751;28;20834;-67
2023/07/10 00:18:49;;;;;;;6.80;4.57;;;26.90;68.90;;;;;;5049384;28;20422;-66
2023/07/10 00:21:17;;;;;;;8.80;4.30;;;26.90;68.20;;;;;;5048088;28;20439;-66
2023/07/10 00:23:43;;;;;;;7.93;4.00;;;26.80;68.80;;;;;;5049422;28;20468;-67
2023/07/10 00:26:21;;;;;;;12.90;4.17;;;26.90;68.20;;;;;;5049435;28;20422;-68
2023/07/10 00:28:50;;;;;;;7.00;3.50;;;26.80;68.60;;;;;;5049053;28;20465;-66
2023/07/10 00:31:15;;;;;;;9.87;4.53;;;26.80;68.80;;;;;;5047760;28;20969;-67
2023/07/10 00:33:41;;;;;;;9.53;4.17;;;26.80;67.80;;;;;;5047678;28;20450;-67
2023/07/10 00:36:40;;;;;;;5.50;3.43;;;26.80;67.90;;;;;;5047493;28;20684;-65
2023/07/10 00:39:25;;;;;;;9.03;4.43;;;26.70;68.00;;;;;;5047303;28;20199;-66
2023/07/10 00:42:00;;;;;;;12.80;4.80;;;26.60;67.70;;;;;;5048886;28;20430;-66
2023/07/10 00:44:32;;;;;;;7.97;3.37;;;26.60;67.20;;;;;;5048932;28;20409;-65
2023/07/10 00:47:03;;;;;;;7.37;3.87;;;26.60;67.60;;;;;;5048434;28;20420;-67
2023/07/10 00:49:50;;;;;;;8.10;3.70;;;26.60;67.70;;;;;;5047571;28;20411;-67
2023/07/10 00:52:24;;;;;;;11.27;4.17;;;26.60;67.60;;;;;;5048791;28;20473;-65
2023/07/10 00:54:53;;;;;;;5.57;3.37;;;26.60;67.50;;;;;;5048748;28;20913;-66
2023/07/10 00:57:22;;;;;;;8.00;4.77;;;26.50;67.80;;;;;;5048862;28;20872;-66
2023/07/10 00:59:50;;;;;;;5.00;3.70;;;26.40;70.50;;;;;;5048750;28;20965;-65
2023/07/10 01:02:18;;;;;;;6.97;3.87;;;26.40;69.40;;;;;;5047032;28;20933;-67
2023/07/10 01:04:52;;;;;;;5.33;3.97;;;26.30;72.60;;;;;;5048883;28;20862;-67
2023/07/10 01:07:19;;;;;;;6.23;4.37;;;26.10;73.50;;;;;;5048804;28;20518;-67
2023/07/10 01:09:58;;;;;;;7.90;4.20;;;26.00;71.90;;;;;;5048561;28;20422;-66
2023/07/10 01:12:26;;;;;;;7.40;3.90;;;26.00;73.60;;;;;;5048605;28;20449;-67
2023/07/10 01:14:52;;;;;;;8.33;4.30;;;25.90;75.00;;;;;;5048386;28;20457;-67
2023/07/10 01:17:17;;;;;;;7.30;4.60;;;25.70;73.60;;;;;;5046874;28;20456;-67
2023/07/10 01:19:45;;;;;;;9.87;5.60;;;25.60;75.80;;;;;;5048493;28;20496;-67
2023/07/10 01:22:11;;;;;;;6.90;3.70;;;25.30;73.50;;;;;;5048334;28;20294;-67
2023/07/10 01:24:38;;;;;;;11.83;3.50;;;25.30;70.10;;;;;;5047459;28;20464;-67
2023/07/10 01:27:06;;;;;;;10.53;4.13;;;25.30;68.90;;;;;;5048628;28;20787;-67
2023/07/10 01:29:36;;;;;;;11.20;4.80;;;25.20;68.50;;;;;;5048415;28;21006;-66
2023/07/10 01:32:04;;;;;;;9.20;4.50;;;25.10;69.90;;;;;;5047216;28;20426;-67
2023/07/10 01:34:38;;;;;;;9.03;4.67;;;25.10;69.60;;;;;;5048428;28;20911;-68
2023/07/10 01:37:05;;;;;;;10.13;4.20;;;25.10;70.00;;;;;;5048411;28;20414;-66
2023/07/10 01:39:47;;;;;;;14.00;4.53;;;25.10;70.20;;;;;;5047182;28;20448;-66
2023/07/10 01:42:13;;;;;;;10.90;4.00;;;25.10;70.20;;;;;;5047222;28;20442;-65
2023/07/10 01:44:41;;;;;;;10.00;4.90;;;25.10;70.40;;;;;;5048779;28;20801;-65
2023/07/10 01:47:09;;;;;;;11.03;5.27;;;25.00;71.60;;;;;;5048803;28;20910;-67
2023/07/10 01:49:44;;;;;;;5.87;3.60;;;24.60;72.30;;;;;;5048989;28;20407;-67
2023/07/10 01:52:14;;;;;;;13.10;4.80;;;24.30;71.30;;;;;;5049113;28;20517;-66
2023/07/10 01:54:40;;;;;;;7.90;4.10;;;24.10;68.40;;;;;;5048744;28;20421;-65
2023/07/10 01:57:07;;;;;;;8.13;5.00;;;23.90;72.70;;;;;;5049359;28;20509;-66
2023/07/10 01:59:32;;;;;;;7.17;4.83;;;23.70;78.00;;;;;;5053002;28;20973;-67
2023/07/10 02:01:59;;;;;;;11.20;5.40;;;23.50;83.80;;;;;;5051441;28;20469;-66
2023/07/10 02:04:25;;;;;;;7.30;4.70;;;23.40;90.00;;;;;;5053002;28;20205;-65
2023/07/10 02:06:54;;;;;;;7.67;4.03;;;23.30;91.10;;;;;;5053052;28;20928;-65
2023/07/10 02:09:22;;;;;;;11.13;5.77;;;23.20;92.40;;;;;;5052965;28;20426;-67
2023/07/10 02:11:47;;;;;;;10.50;4.57;;;23.20;94.00;;;;;;5052843;28;20558;-66
2023/07/10 02:14:13;;;;;;;8.37;4.90;;;23.10;95.00;;;;;;5052764;28;20787;-65
2023/07/10 02:16:39;;;;;;;5.67;4.50;;;23.10;95.60;;;;;;5051148;28;20211;-66
2023/07/10 02:19:05;;;;;;;6.43;4.80;;;23.00;96.70;;;;;;5052526;28;20195;-66
2023/07/10 02:21:32;;;;;;;8.17;4.43;;;23.00;97.20;;;;;;5052444;28;20207;-66
2023/07/10 02:23:58;;;;;;;6.73;4.40;;;23.00;98.10;;;;;;5052217;28;20866;-67
2023/07/10 02:26:23;;;;;;;9.00;4.40;;;22.90;99.00;;;;;;5052024;28;20504;-67
2023/07/10 02:28:49;;;;;;;9.60;4.50;;;22.70;99.90;;;;;;5051720;28;20719;-66
2023/07/10 02:31:15;;;;;;;7.40;4.80;;;22.70;99.90;;;;;;5052096;28;20298;-67
2023/07/10 02:33:40;;;;;;;9.23;5.43;;;22.60;99.90;;;;;;5051836;28;20216;-65
2023/07/10 02:36:06;;;;;;;8.57;5.30;;;22.60;99.90;;;;;;5050604;28;20590;-65
2023/07/10 02:38:32;;;;;;;10.33;5.40;;;22.60;99.90;;;;;;5050378;28;20229;-66
2023/07/10 02:40:59;;;;;;;8.00;4.40;;;22.60;99.90;;;;;;5051759;28;20285;-66
2023/07/10 02:43:24;;;;;;;10.90;5.27;;;22.60;99.90;;;;;;5051582;28;20716;-66
2023/07/10 02:45:50;;;;;;;10.57;5.30;;;22.60;99.90;;;;;;5051472;28;20425;-66
2023/07/10 02:48:16;;;;;;;7.77;4.50;;;22.60;99.90;;;;;;5051525;28;20558;-65
2023/07/10 02:50:42;;;;;;;9.37;5.37;;;22.50;99.90;;;;;;5051151;28;20509;-66
2023/07/10 02:53:08;;;;;;;7.43;4.60;;;22.40;99.90;;;;;;5051206;28;20278;-66
2023/07/10 02:55:33;;;;;;;5.73;4.37;;;22.30;99.90;;;;;;5051294;28;20571;-66
2023/07/10 02:58:01;;;;;;;9.20;4.60;;;22.40;99.90;;;;;;5050965;28;20583;-66
2023/07/10 03:00:27;;;;;;;9.80;5.20;;;22.30;99.90;;;;;;5050809;28;20232;-67
2023/07/10 03:02:54;;;;;;;7.13;4.63;;;22.30;99.90;;;;;;5050712;28;20835;-67
2023/07/10 03:05:24;;;;;;;9.63;4.90;;;22.40;99.90;;;;;;5050769;28;20680;-67
2023/07/10 03:07:50;;;;;;;8.57;4.80;;;22.40;99.90;;;;;;5049467;28;21101;-66
2023/07/10 03:10:16;;;;;;;10.23;5.53;;;22.40;99.90;;;;;;5050111;28;20427;-66
2023/07/10 03:12:42;;;;;;;7.63;4.87;;;22.30;99.90;;;;;;5050678;28;20448;-65
2023/07/10 03:15:08;;;;;;;7.70;4.27;;;22.30;99.90;;;;;;5049449;28;20470;-66
2023/07/10 03:17:34;;;;;;;7.30;4.57;;;22.40;99.90;;;;;;5050682;28;20231;-66
2023/07/10 03:20:00;;;;;;;8.30;4.77;;;22.50;99.90;;;;;;5050645;28;20418;-66
2023/07/10 03:22:26;;;;;;;8.00;4.27;;;22.50;99.90;;;;;;5050765;28;20217;-66
2023/07/10 03:24:52;;;;;;;9.37;4.17;;;22.60;99.90;;;;;;5048884;28;20188;-67
2023/07/10 03:27:18;;;;;;;7.70;5.10;;;22.80;99.90;;;;;;5048909;28;20439;-66
2023/07/10 03:29:44;;;;;;;10.60;5.07;;;22.80;99.70;;;;;;5050640;28;20533;-68
2023/07/10 03:32:09;;;;;;;10.33;4.70;;;22.70;99.90;;;;;;5050286;28;20218;-68
2023/07/10 03:34:35;;;;;;;9.50;4.50;;;22.70;99.90;;;;;;5050113;28;20216;-68
2023/07/10 03:37:02;;;;;;;5.97;4.13;;;22.70;99.90;;;;;;5048889;28;20201;-68
2023/07/10 03:39:28;;;;;;;7.57;4.87;;;22.80;99.90;;;;;;5050282;28;20644;-68
2023/07/10 03:41:53;;;;;;;7.50;4.47;;;22.80;99.90;;;;;;5050122;28;20440;-68
2023/07/10 03:44:19;;;;;;;12.00;4.40;;;22.90;99.80;;;;;;5050620;28;20626;-68
2023/07/10 03:46:45;;;;;;;9.17;4.23;;;22.90;99.80;;;;;;5050205;28;20342;-68
2023/07/10 03:49:10;;;;;;;9.67;4.40;;;22.90;99.70;;;;;;5049038;28;20191;-68
2023/07/10 03:51:36;;;;;;;7.47;5.13;;;22.90;99.40;;;;;;5050654;28;20693;-68
2023/07/10 03:54:02;;;;;;;7.97;4.90;;;23.00;99.40;;;;;;5050557;28;20190;-67
2023/07/10 03:56:28;;;;;;;7.30;5.03;;;23.00;99.30;;;;;;5032578;28;20263;-68
2023/07/10 03:58:54;;;;;;;5.43;4.50;;;23.00;99.30;;;;;;5050451;28;20815;-68
2023/07/10 04:01:19;;;;;;;8.40;4.33;;;23.10;99.90;;;;;;5050529;28;20474;-68
2023/07/10 04:03:45;;;;;;;10.37;4.87;;;22.80;99.90;;;;;;5048735;28;20222;-68
2023/07/10 04:06:13;;;;;;;9.53;4.80;;;22.80;99.90;;;;;;5050872;28;20234;-68
2023/07/10 04:08:40;;;;;;;7.47;4.53;;;22.80;99.30;;;;;;5050418;28;20657;-68
2023/07/10 04:11:15;;;;;;;6.97;4.97;;;22.90;99.40;;;;;;5050305;28;20464;-68
2023/07/10 04:13:41;;;;;;;7.43;4.00;;;23.00;99.90;;;;;;5050486;28;20873;-68
2023/07/10 04:16:20;;;;;;;8.40;4.50;;;23.00;99.80;;;;;;5050228;28;20559;-67
2023/07/10 04:18:48;;;;;;;13.80;5.00;;;23.10;99.20;;;;;;5049347;28;20912;-68
2023/07/10 04:21:26;;;;;;;6.03;4.50;;;23.20;99.40;;;;;;5048417;28;20453;-69
2023/07/10 04:23:52;;;;;;;7.73;3.97;;;23.30;99.40;;;;;;5047983;28;20961;-68
2023/07/10 04:26:22;;;;;;;14.00;5.70;;;23.10;99.90;;;;;;5049378;28;20428;-68
2023/07/10 04:28:50;;;;;;;7.53;5.33;;;23.10;99.90;;;;;;5048932;28;20463;-69
2023/07/10 04:31:17;;;;;;;11.40;4.90;;;23.10;99.90;;;;;;5048544;28;20436;-68
2023/07/10 04:33:43;;;;;;;7.50;4.43;;;23.00;99.90;;;;;;5048343;28;20431;-68
2023/07/10 04:36:09;;;;;;;7.90;5.23;;;23.10;99.90;;;;;;5046505;28;20473;-68
2023/07/10 04:38:35;;;;;;;7.07;4.87;;;23.10;99.90;;;;;;5048600;28;20190;-68
2023/07/10 04:41:05;;;;;;;13.07;4.80;;;23.10;99.80;;;;;;5048517;28;20443;-68
2023/07/10 04:43:33;;;;;;;8.90;5.40;;;23.10;99.90;;;;;;5046857;28;20690;-67
2023/07/10 04:46:01;;;;;;;12.70;5.13;;;23.10;99.90;;;;;;5048690;28;20909;-68
2023/07/10 04:48:27;;;;;;;8.33;3.90;;;23.10;99.90;;;;;;5048152;28;20508;-69
2023/07/10 04:50:54;;;;;;;12.53;5.43;;;23.20;99.90;;;;;;5048196;28;20841;-69
2023/07/10 04:53:21;;;;;;;11.83;5.33;;;23.20;99.90;;;;;;5029802;28;20225;-68
2023/07/10 04:55:48;;;;;;;6.23;4.10;;;23.30;99.90;;;;;;5047508;28;20674;-69
2023/07/10 04:58:14;;;;;;;7.07;4.80;;;23.40;99.90;;;;;;5047480;28;20524;-69
2023/07/10 05:00:40;;;;;;;7.40;4.60;;;23.40;99.90;;;;;;5046318;28;20519;-70
2023/07/10 05:03:06;;;;;;;9.13;4.70;;;23.50;99.60;;;;;;5046535;28;20221;-70
2023/07/10 05:05:32;;;;;;;8.70;4.27;;;23.50;99.30;;;;;;5048060;28;20683;-70
2023/07/10 05:07:59;;;;;;;8.60;4.40;;;23.60;99.90;;;;;;5046476;28;20420;-70
2023/07/10 05:10:26;;;;;;;9.00;5.60;;;23.70;99.80;;;;;;5048014;28;20479;-70
2023/07/10 05:12:51;;;;;;;7.77;4.40;;;23.70;99.80;;;;;;5047574;28;20951;-69
2023/07/10 05:15:19;;;;;;;13.17;5.07;;;23.60;99.90;;;;;;5046150;28;20466;-70
2023/07/10 05:17:46;;;;;;;8.53;5.63;;;23.50;99.90;;;;;;5045918;28;20239;-69
2023/07/10 05:20:11;;;;;;;8.00;4.70;;;23.50;99.60;;;;;;5046756;28;21317;-69
2023/07/10 05:22:37;;;;;;;8.23;4.90;;;23.60;99.50;;;;;;5047581;28;20437;-69
2023/07/10 05:25:03;;;;;;;9.20;4.60;;;23.60;99.90;;;;;;5047379;28;20638;-69
2023/07/10 05:27:28;;;;;;;9.57;4.93;;;23.70;99.90;;;;;;5045962;28;20670;-69
2023/07/10 05:29:54;;;;;;;8.67;4.77;;;23.80;99.90;;;;;;5045586;28;20483;-68
2023/07/10 05:32:19;;;;;;;12.40;5.90;;;23.80;99.90;;;;;;5045496;28;21024;-69
2023/07/10 05:34:46;;;;;;;8.50;4.17;;;23.80;99.90;;;;;;5047576;28;20291;-70
2023/07/10 05:37:12;;;;;;;8.10;5.03;;;23.90;99.90;;;;;;5047445;28;20288;-70
2023/07/10 05:39:37;;;;;;;5.73;4.60;;;24.00;99.90;;;;;;5047207;28;20511;-69
2023/07/10 05:42:03;;;;;;;15.53;5.40;;;24.10;99.90;;;;;;5046846;28;20205;-69
2023/07/10 05:44:29;;;;;;;9.50;4.63;;;24.20;99.90;;;;;;5047110;28;20564;-69
2023/07/10 05:46:56;;;;;;;9.43;4.90;;;24.30;99.30;;;;;;5047370;28;20946;-69
2023/07/10 05:49:23;;;;;;;10.60;5.03;;;24.40;99.60;;;;;;5047218;28;20426;-68
2023/07/10 05:51:50;;;;;;;10.07;5.10;;;24.50;99.60;;;;;;5047246;28;21287;-70
2023/07/10 05:54:16;;;;;;;20.63;5.80;;;24.70;99.90;;;;;;5047068;28;20464;-69
2023/07/10 05:56:42;;;;;;;14.67;5.57;;;24.70;99.00;;;;;;5047401;28;20467;-69
2023/07/10 05:59:11;;;;;;;12.80;5.90;;;24.80;99.20;;;;;;5047130;28;20273;-69
2023/07/10 06:01:37;;;;;;;7.50;4.70;;;24.70;99.00;;;;;;5046952;28;20210;-69
2023/07/10 06:04:03;;;;;;;9.03;4.60;;;24.70;99.20;;;;;;5045604;28;20792;-69
2023/07/10 06:06:28;;;;;;;14.30;5.13;;;24.70;99.90;;;;;;5047363;28;20197;-69
2023/07/10 06:08:54;;;;;;;9.60;4.73;;;24.70;99.90;;;;;;5046946;28;20190;-69
2023/07/10 06:11:19;;;;;;;13.70;4.77;;;24.70;99.90;;;;;;5046851;28;20218;-69
2023/07/10 06:13:45;;;;;;;12.90;5.13;;;24.60;99.20;;;;;;5046999;28;20273;-69
2023/07/10 06:16:11;;;;;;;14.13;5.37;;;24.60;99.30;;;;;;5046608;28;20248;-68
2023/07/10 06:18:38;;;;;;;7.50;5.20;;;24.60;99.90;;;;;;5046905;28;20185;-70
2023/07/10 06:21:05;;;;;;;15.30;6.10;;;24.60;99.90;;;;;;5046489;28;20500;-69
2023/07/10 06:23:30;;;;;;;15.20;5.30;;;24.80;99.90;;;;;;5046676;28;20421;-69
2023/07/10 06:25:58;;;;;;;7.13;4.70;;;24.80;99.90;;;;;;5046978;28;21005;-69
2023/07/10 06:28:24;;;;;;;9.40;5.70;;;24.90;99.90;;;;;;5046945;28;20198;-68
2023/07/10 06:31:02;;;;;;;8.07;5.20;;;25.00;99.90;;;;;;5046584;28;20457;-67
2023/07/10 06:33:29;;;;;;;9.30;5.70;;;25.10;99.90;;;;;;5046651;28;20425;-69
2023/07/10 06:35:55;;;;;;;11.10;5.33;;;25.20;99.90;;;;;;5044764;28;21302;-68
2023/07/10 06:38:21;;;;;;;6.10;4.80;;;25.20;99.90;;;;;;5046680;28;20453;-68
2023/07/10 06:40:50;;;;;;;14.00;5.47;;;25.30;99.90;;;;;;5046574;28;20675;-68
2023/07/10 06:43:20;;;;;;;9.00;6.07;;;25.20;99.90;;;;;;5028738;28;20424;-67
2023/07/10 06:45:47;;;;;;;6.63;4.33;;;25.10;99.90;;;;;;5049689;28;20421;-68
2023/07/10 06:48:13;;;;;;;11.03;5.77;;;25.10;99.90;;;;;;5050887;28;20460;-68
2023/07/10 06:50:38;;;;;;;10.00;4.80;;;25.00;99.90;;;;;;5050281;28;20437;-68
2023/07/10 06:53:04;;;;;;;6.23;4.83;;;25.00;99.90;;;;;;5048792;28;20775;-68
2023/07/10 06:55:31;;;;;;;8.83;5.10;;;25.00;99.90;;;;;;5050104;28;20240;-68
2023/07/10 06:57:57;;;;;;;10.90;5.93;;;25.00;99.90;;;;;;5050196;28;20838;-68
2023/07/10 07:00:23;;;;;;;8.00;5.43;;;24.80;99.90;;;;;;5050127;28;20423;-69
2023/07/10 07:02:48;;;;;;;9.33;5.80;;;24.80;99.90;;;;;;5049925;28;20445;-68
2023/07/10 07:05:14;;;;;;;6.60;4.70;;;24.70;99.90;;;;;;5050204;28;20203;-68
2023/07/10 07:07:40;;;;;;;10.17;5.30;;;24.80;99.90;;;;;;5050122;28;20209;-68
2023/07/10 07:10:13;;;;;;;10.27;5.27;;;24.90;99.90;;;;;;5050068;28;20443;-68
2023/07/10 07:12:39;;;;;;;8.60;5.07;;;25.00;99.90;;;;;;5048318;28;20536;-69
2023/07/10 07:15:06;;;;;;;7.10;4.50;;;25.10;99.90;;;;;;5049900;28;20805;-68
2023/07/10 07:17:32;;;;;;;11.93;4.97;;;25.30;99.90;;;;;;5050000;28;20449;-68
2023/07/10 07:19:57;;;;;;;8.50;5.40;;;25.60;99.90;;;;;;5050079;28;20413;-68
2023/07/10 07:22:23;;;;;;;11.03;5.50;;;25.70;99.90;;;;;;5031924;28;20869;-69
2023/07/10 07:24:49;;;;;;;8.70;5.60;;;25.80;99.90;;;;;;5049676;28;20215;-68
2023/07/10 07:27:14;;;;;;;7.93;4.90;;;26.00;99.90;;;;;;5047941;28;20191;-63
2023/07/10 07:29:40;;;;;;;5.87;4.67;;;26.10;99.90;;;;;;5049480;28;20671;-64
2023/07/10 07:32:06;;;;;;;8.23;5.27;;;26.10;99.90;;;;;;5047529;28;20206;-64
2023/07/10 07:34:32;;;;;;;5.63;4.53;;;26.00;99.90;;;;;;5048860;28;20227;-65
2023/07/10 07:36:57;;;;;;;9.53;5.60;;;26.00;99.90;;;;;;5047453;28;20572;-64
2023/07/10 07:39:28;;;;;;;6.90;4.73;;;26.20;99.90;;;;;;5049123;28;20176;-65
2023/07/10 07:41:54;;;;;;;15.23;5.17;;;26.20;99.90;;;;;;5048558;28;20218;-64
2023/07/10 07:44:19;;;;;;;5.30;4.80;;;26.10;99.90;;;;;;5048778;28;20437;-65
2023/07/10 07:46:45;;;;;;;11.90;5.10;;;26.00;99.90;;;;;;5048558;28;20426;-65
2023/07/10 07:49:11;;;;;;;7.27;4.53;;;25.90;99.90;;;;;;5048647;28;20200;-65
2023/07/10 07:51:37;;;;;;;7.57;5.03;;;25.90;99.90;;;;;;5046806;28;20234;-65
2023/07/10 07:54:05;;;;;;;10.03;4.83;;;26.10;99.90;;;;;;5048488;28;20194;-65
2023/07/10 07:56:31;;;;;;;9.00;5.33;;;26.30;99.90;;;;;;5048190;28;20469;-64
2023/07/10 07:58:56;;;;;;;9.20;5.57;;;26.50;99.90;;;;;;5048361;28;20972;-66
2023/07/10 08:01:22;;;;;;;10.80;4.70;;;26.50;99.90;;;;;;5048544;28;20758;-66
2023/07/10 08:03:47;;;;;;;5.17;4.60;;;26.60;99.90;;;;;;5048654;28;20300;-66
2023/07/10 08:06:13;;;;;;;7.90;4.87;;;26.80;99.90;;;;;;5048208;28;20191;-66
2023/07/10 08:08:39;;;;;;;9.57;5.20;;;26.90;99.90;;;;;;5048511;28;20320;-66
2023/07/10 08:11:06;;;;;;;12.00;5.80;;;27.00;99.90;;;;;;5048083;28;20218;-64
2023/07/10 08:13:32;;;;;;;14.10;5.80;;;27.10;99.90;;;;;;5048146;28;20188;-65
2023/07/10 08:15:58;;;;;;;7.80;5.13;;;27.20;99.90;;;;;;5048059;28;20485;-64
2023/07/10 08:18:24;;;;;;;8.70;5.50;;;27.30;99.90;;;;;;5047860;28;20188;-65
2023/07/10 08:20:50;;;;;;;11.60;6.17;;;27.30;99.90;;;;;;5047878;28;20200;-66
2023/07/10 08:23:15;;;;;;;7.97;5.10;;;27.40;99.90;;;;;;5048003;28;21063;-64
2023/07/10 08:25:41;;;;;;;9.23;5.47;;;27.50;99.90;;;;;;5047868;28;20192;-65
2023/07/10 08:28:07;;;;;;;8.83;6.03;;;27.70;99.90;;;;;;5046289;28;20195;-65
2023/07/10 08:30:32;;;;;;;11.00;6.00;;;27.80;99.90;;;;;;5047801;28;20206;-65
2023/07/10 08:32:58;;;;;;;8.90;5.50;;;27.90;99.90;;;;;;5047690;28;20195;-66
2023/07/10 08:35:24;;;;;;;9.17;6.03;;;28.10;99.90;;;;;;5047897;28;20211;-66
2023/07/10 08:37:50;;;;;;;6.87;5.10;;;28.10;99.90;;;;;;5047902;28;20214;-65
2023/07/10 08:40:30;;;;;;;7.67;4.90;;;28.20;99.90;;;;;;5047671;28;20306;-65
2023/07/10 08:42:59;;;;;;;8.10;5.30;;;28.40;99.90;;;;;;5047652;28;20433;-65
2023/07/10 08:45:34;;;;;;;8.07;5.03;;;28.40;99.90;;;;;;5047571;28;20803;-66
2023/07/10 08:48:22;;;;;;;6.30;4.93;;;28.60;99.90;;;;;;5047745;28;20526;-65
2023/07/10 08:50:49;;;;;;;18.13;5.20;;;28.70;99.90;;;;;;5047396;28;20429;-66
2023/07/10 08:53:23;;;;;;;19.03;5.30;;;28.80;99.90;;;;;;5047810;28;20434;-75
2023/07/10 08:55:56;;;;;;;6.10;4.80;;;28.90;99.90;;;;;;5048473;28;20468;-75
2023/07/10 08:58:27;;;;;;;7.07;5.20;;;29.10;99.70;;;;;;5048724;28;20442;-74
2023/07/10 09:01:00;;;;;;;9.10;5.27;;;29.20;99.90;;;;;;5048660;28;20469;-74
2023/07/10 09:03:40;;;;;;;6.33;5.57;;;29.30;99.90;;;;;;5049066;28;20414;-74
2023/07/10 09:06:29;;;;;;;8.60;4.67;;;29.50;99.90;;;;;;5048420;28;20426;-74
2023/07/10 09:08:55;;;;;;;6.20;5.30;;;29.70;99.30;;;;;;5048108;28;20428;-74
2023/07/10 09:11:23;;;;;;;5.60;5.10;;;29.80;99.90;;;;;;5048100;28;20441;-74
2023/07/10 09:14:10;;;;;;;6.70;5.90;;;30.00;98.40;;;;;;5046733;28;20435;-73
2023/07/10 09:16:36;;;;;;;9.07;4.93;;;30.10;98.60;;;;;;5047984;28;20548;-74
2023/07/10 09:19:16;;;;;;;5.00;4.50;;;30.30;98.30;;;;;;5046716;28;20636;-73
2023/07/10 09:21:42;;;;;;;7.63;4.80;;;30.50;97.00;;;;;;5048114;28;20714;-74
2023/07/10 09:24:26;;;;;;;6.67;4.83;;;30.60;97.30;;;;;;5048137;28;20898;-74
2023/07/10 09:26:52;;;;;;;7.53;5.20;;;30.90;96.80;;;;;;5047927;28;20855;-74
2023/07/10 09:29:31;;;;;;;6.63;5.30;;;31.00;96.00;;;;;;5047644;28;20495;-74
2023/07/10 09:32:15;;;;;;;6.80;4.90;;;31.30;96.10;;;;;;5046251;28;20207;-74
2023/07/10 09:34:58;;;;;;;6.80;4.87;;;31.50;95.30;;;;;;5047786;28;20425;-73
2023/07/10 09:37:30;;;;;;;6.17;4.93;;;31.70;95.10;;;;;;5047643;28;20457;-74
2023/07/10 09:39:56;;;;;;;5.00;4.53;;;31.70;93.70;;;;;;5047712;28;20842;-73
2023/07/10 09:42:33;;;;;;;4.93;4.50;;;31.70;93.20;;;;;;5047649;28;20442;-73
2023/07/10 09:44:59;;;;;;;9.93;4.90;;;31.90;93.90;;;;;;5047472;28;20194;-73
2023/07/10 09:47:50;;;;;;;6.20;5.10;;;32.00;93.40;;;;;;5047332;28;20410;-74
2023/07/10 09:50:18;;;;;;;9.80;4.60;;;31.90;93.00;;;;;;5045851;28;20195;-74
2023/07/10 09:52:51;;;;;;;9.67;5.10;;;32.00;92.90;;;;;;5045705;28;20732;-74
2023/07/10 09:55:17;;;;;;;4.90;4.43;;;32.20;92.20;;;;;;5047520;28;20830;-73
2023/07/10 09:58:03;;;;;;;8.40;4.87;;;32.40;92.00;;;;;;5047104;28;20410;-74
2023/07/10 10:00:30;;;;;;;4.60;4.20;;;32.60;91.90;;;;;;5047024;28;20926;-74
2023/07/10 10:03:03;;;;;;;5.53;4.93;;;32.70;91.50;;;;;;5047039;28;20422;-74
2023/07/10 10:05:29;;;;;;;5.07;4.27;;;32.80;90.00;;;;;;5046849;28;20406;-74
2023/07/10 10:08:04;;;;;;;10.83;4.70;;;32.80;90.20;;;;;;5045258;28;20430;-74
2023/07/10 10:10:32;;;;;;;5.23;4.70;;;32.90;90.60;;;;;;5046481;28;20446;-74
2023/07/10 10:13:23;;;;;;;4.47;4.07;;;33.00;90.00;;;;;;5028569;28;20568;-74
2023/07/10 10:16:23;;;;;;;7.10;4.67;;;33.20;88.70;;;;;;5045879;28;20461;-74
2023/07/10 10:19:03;;;;;;;7.83;4.00;;;33.30;90.20;;;;;;5046555;28;20430;-74
2023/07/10 10:21:32;;;;;;;6.77;4.27;;;33.30;89.50;;;;;;5050479;28;20426;-74
2023/07/10 10:24:04;;;;;;;12.10;5.00;;;33.40;88.30;;;;;;5050744;28;20774;-74
2023/07/10 10:27:12;;;;;;;5.50;4.53;;;33.40;87.00;;;;;;5051165;28;20418;-73
2023/07/10 10:30:12;;;;;;;12.17;5.37;;;33.30;85.20;;;;;;5050412;28;21355;-75
2023/07/10 10:33:06;;;;;;;7.20;4.83;;;33.40;86.70;;;;;;5049244;28;20449;-75
2023/07/10 10:35:41;;;;;;;5.27;4.80;;;33.40;86.30;;;;;;5050844;28;20454;-73
2023/07/10 10:38:43;;;;;;;5.70;4.90;;;33.50;84.60;;;;;;5050989;28;20410;-74
2023/07/10 10:41:45;;;;;;;9.00;4.97;;;33.80;84.50;;;;;;5050824;28;20495;-74
2023/07/10 10:44:41;;;;;;;6.90;4.97;;;34.10;84.90;;;;;;5050876;28;20414;-75
2023/07/10 10:47:38;;;;;;;7.43;4.70;;;33.80;81.00;;;;;;5032442;28;20426;-75
2023/07/10 10:50:35;;;;;;;5.37;4.87;;;33.80;83.30;;;;;;5050777;28;20480;-73
2023/07/10 10:53:14;;;;;;;8.50;4.43;;;34.00;84.10;;;;;;5049027;28;20428;-67
2023/07/10 10:55:56;;;;;;;5.03;4.53;;;33.70;82.70;;;;;;5050443;28;20866;-65
2023/07/10 10:58:39;;;;;;;9.90;4.63;;;33.50;84.10;;;;;;5050581;28;20852;-67
2023/07/10 11:01:37;;;;;;;8.07;4.50;;;33.30;84.50;;;;;;5049155;28;20457;-66
2023/07/10 11:04:10;;;;;;;7.63;4.83;;;33.20;84.90;;;;;;5049222;28;20513;-66
2023/07/10 11:06:47;;;;;;;8.50;5.43;;;33.30;81.70;;;;;;5050476;28;20465;-65
2023/07/10 11:09:21;;;;;;;7.50;5.03;;;33.10;81.10;;;;;;5050460;28;20414;-66
2023/07/10 11:11:48;;;;;;;7.83;5.00;;;33.10;82.50;;;;;;5050356;28;20438;-65
2023/07/10 11:14:13;;;;;;;6.90;4.40;;;33.10;82.10;;;;;;5050227;28;20505;-67
2023/07/10 11:16:40;;;;;;;4.93;4.43;;;33.10;82.90;;;;;;5048575;28;20605;-67
2023/07/10 11:19:10;;;;;;;6.97;4.27;;;33.00;83.00;;;;;;5048566;28;20267;-67
2023/07/10 11:21:36;;;;;;;6.57;4.57;;;32.90;84.60;;;;;;5050258;28;20517;-67
2023/07/10 11:24:36;;;;;;;5.03;4.63;;;33.10;84.80;;;;;;5050200;28;20514;-67
2023/07/10 11:27:19;;;;;;;5.67;4.63;;;33.10;81.80;;;;;;5050287;28;20182;-66
2023/07/10 11:30:06;;;;;;;8.30;4.97;;;32.70;84.50;;;;;;5049308;28;20442;-68
2023/07/10 11:32:55;;;;;;;6.10;4.83;;;32.80;86.00;;;;;;5049563;28;20434;-66
2023/07/10 11:35:21;;;;;;;8.03;5.70;;;32.90;86.70;;;;;;5049136;28;20519;-65
2023/07/10 11:37:47;;;;;;;4.77;3.83;;;32.90;86.30;;;;;;5049432;28;20416;-65
2023/07/10 11:40:28;;;;;;;9.10;4.73;;;33.00;87.00;;;;;;5049140;28;20403;-66
2023/07/10 11:43:01;;;;;;;9.90;5.20;;;33.00;85.60;;;;;;5049059;28;20196;-66
2023/07/10 11:45:43;;;;;;;10.20;5.40;;;33.10;84.80;;;;;;5048951;28;20864;-66
2023/07/10 11:49:06;;;;;;;8.47;4.20;;;33.00;81.70;;;;;;5047289;28;20426;-66
2023/07/10 11:51:35;;;;;;;9.90;5.33;;;33.10;83.30;;;;;;5046190;28;20964;-68
2023/07/10 11:54:15;;;;;;;5.10;4.70;;;33.10;80.90;;;;;;5046041;28;20903;-66
2023/07/10 11:57:08;;;;;;;6.00;4.90;;;33.30;84.20;;;;;;5048184;28;20484;-65
2023/07/10 11:59:35;;;;;;;7.97;5.37;;;33.20;83.80;;;;;;5049054;28;20421;-67
2023/07/10 12:02:01;;;;;;;9.20;4.87;;;33.20;82.90;;;;;;5049134;28;20437;-66
2023/07/10 12:04:27;;;;;;;5.87;4.90;;;33.30;84.50;;;;;;5049157;28;20492;-66
2023/07/10 12:06:57;;;;;;;8.20;5.00;;;33.50;82.90;;;;;;5049133;28;20203;-66
2023/07/10 12:09:23;;;;;;;7.90;4.97;;;33.60;83.30;;;;;;5049200;28;20468;-67
2023/07/10 12:11:54;;;;;;;7.67;5.47;;;33.60;81.60;;;;;;5049472;28;20430;-68
2023/07/10 12:14:19;;;;;;;6.27;4.83;;;33.60;83.50;;;;;;5048979;28;20212;-65
2023/07/10 12:16:49;;;;;;;5.40;4.60;;;33.60;81.90;;;;;;5047547;28;20505;-66
2023/07/10 12:19:21;;;;;;;8.10;5.13;;;33.80;82.90;;;;;;5049016;28;20180;-65
2023/07/10 12:21:47;;;;;;;10.93;5.73;;;33.70;79.50;;;;;;5047261;28;20426;-65
2023/07/10 12:24:15;;;;;;;8.50;5.30;;;33.60;83.80;;;;;;5048986;28;20495;-66
2023/07/10 12:26:41;;;;;;;7.07;5.00;;;33.50;82.00;;;;;;5048849;28;20640;-65
2023/07/10 12:29:15;;;;;;;7.70;4.77;;;33.30;81.40;;;;;;5048651;28;20458;-66
2023/07/10 12:31:42;;;;;;;8.07;5.50;;;33.00;82.80;;;;;;5048948;28;20242;-67
2023/07/10 12:34:25;;;;;;;9.17;5.13;;;32.80;83.50;;;;;;5048759;28;20470;-65
2023/07/10 12:36:53;;;;;;;4.57;4.20;;;32.50;83.50;;;;;;5048844;28;20462;-66
2023/07/10 12:39:21;;;;;;;6.80;5.03;;;32.10;86.30;;;;;;5048573;28;20461;-66
2023/07/10 12:41:52;;;;;;;6.90;5.13;;;32.00;86.30;;;;;;5047752;28;20502;-65
2023/07/10 12:44:30;;;;;;;8.87;5.57;;;31.90;86.00;;;;;;5048001;28;20410;-65
2023/07/10 12:47:13;;;;;;;5.40;4.90;;;31.70;86.30;;;;;;5048341;28;20422;-67
2023/07/10 12:49:47;;;;;;;6.63;4.73;;;31.70;89.10;;;;;;5048275;28;20509;-66
2023/07/10 12:52:12;;;;;;;6.67;4.80;;;31.70;88.60;;;;;;5048346;28;20445;-67
2023/07/10 12:54:42;;;;;;;8.43;5.27;;;32.00;88.30;;;;;;5048248;28;20423;-67
2023/07/10 12:57:18;;;;;;;6.43;4.83;;;32.30;84.70;;;;;;5048302;28;20257;-66
2023/07/10 12:59:46;;;;;;;5.87;4.70;;;32.40;82.80;;;;;;5048176;28;20422;-65
2023/07/10 13:02:47;;;;;;;5.17;4.07;;;32.70;82.40;;;;;;5048120;28;20434;-65